createdAt,value
2022-10-06T00:02:24.087Z,99753.81
2022-10-06T00:05:09.164Z,99753.09
2022-10-06T00:07:54.884Z,99753.50
2022-10-06T00:10:40.095Z,99757.06
2022-10-06T00:13:26.361Z,99755.28
2022-10-06T00:16:17.028Z,99744.75
2022-10-06T00:19:01.699Z,99743.22
2022-10-06T00:21:46.660Z,99743.44
2022-10-06T00:24:31.712Z,99747.00
2022-10-06T00:27:16.421Z,99747.25
2022-10-06T00:30:05.080Z,99745.31
2022-10-06T00:33:01.161Z,99746.91
2022-10-06T00:35:46.947Z,99741.41
2022-10-06T00:38:32.439Z,99749.94
2022-10-06T00:41:18.024Z,99752.56
2022-10-06T00:44:02.968Z,99757.13
2022-10-06T00:46:51.685Z,99760.69
2022-10-06T00:49:37.543Z,99748.81
2022-10-06T00:52:27.413Z,99746.22
2022-10-06T00:55:12.515Z,99746.22
2022-10-06T00:57:58.793Z,99749.19
2022-10-06T01:00:45.412Z,99745.25
2022-10-06T01:03:36.599Z,99739.72
2022-10-06T01:06:21.516Z,99739.31
2022-10-06T01:09:06.426Z,99722.91
2022-10-06T01:11:55.367Z,99727.47
2022-10-06T01:14:40.943Z,99727.47
2022-10-06T01:17:50.829Z,99722.16
2022-10-06T01:20:37.825Z,99722.00
2022-10-06T01:23:22.926Z,99711.34
2022-10-06T01:26:10.867Z,99712.72
2022-10-06T01:28:56.876Z,99716.91
2022-10-06T01:31:43.253Z,99729.56
2022-10-06T01:34:28.361Z,99726.00
2022-10-06T01:37:13.916Z,99726.41
2022-10-06T01:39:59.455Z,99721.31
2022-10-06T01:42:44.474Z,99717.34
2022-10-06T01:45:29.411Z,99716.34
2022-10-06T01:48:14.455Z,99713.78
2022-10-06T01:50:59.707Z,99710.22
2022-10-06T01:53:44.711Z,99710.63
2022-10-06T01:56:29.852Z,99713.81
2022-10-06T01:59:15.743Z,99718.75
2022-10-06T02:02:01.432Z,99719.91
2022-10-06T02:04:47.021Z,99722.28
2022-10-06T02:07:32.254Z,99715.41
2022-10-06T02:10:17.217Z,99713.81
2022-10-06T02:13:04.231Z,99717.94
2022-10-06T02:15:49.272Z,99718.97
2022-10-06T02:18:35.057Z,99718.94
2022-10-06T02:21:22.675Z,99719.53
2022-10-06T02:24:07.553Z,99718.97
2022-10-06T02:26:52.744Z,99732.19
2022-10-06T02:29:38.232Z,99730.22
2022-10-06T02:32:23.528Z,99722.50
2022-10-06T02:35:10.690Z,99729.75
2022-10-06T02:37:55.436Z,99732.50
2022-10-06T02:40:41.001Z,99716.88
2022-10-06T02:43:29.378Z,99732.84
2022-10-06T02:46:15.092Z,99728.09
2022-10-06T02:49:06.432Z,99730.81
2022-10-06T02:51:52.751Z,99724.09
2022-10-06T02:54:37.695Z,99727.03
2022-10-06T02:57:22.664Z,99739.63
2022-10-06T03:00:08.433Z,99727.16
2022-10-06T03:02:53.720Z,99731.44
2022-10-06T03:05:38.997Z,99731.59
2022-10-06T03:08:23.988Z,99734.72
2022-10-06T03:11:11.150Z,99736.63
2022-10-06T03:13:56.835Z,99729.31
2022-10-06T03:16:42.953Z,99736.56
2022-10-06T03:19:33.331Z,99732.59
2022-10-06T03:22:18.403Z,99736.16
2022-10-06T03:25:09.452Z,99733.97
2022-10-06T03:27:54.335Z,99735.94
2022-10-06T03:30:39.388Z,99731.34
2022-10-06T03:33:24.287Z,99737.47
2022-10-06T03:36:18.365Z,99733.31
2022-10-06T03:39:05.109Z,99728.38
2022-10-06T03:41:51.871Z,99729.34
2022-10-06T03:44:36.982Z,99730.94
2022-10-06T03:47:22.830Z,99729.56
2022-10-06T03:50:08.796Z,99726.19
2022-10-06T03:52:54.090Z,99729.72
2022-10-06T03:55:39.382Z,99732.47
2022-10-06T03:58:24.293Z,99722.81
2022-10-06T04:01:26.359Z,99727.13
2022-10-06T04:04:12.315Z,99729.25
2022-10-06T04:06:58.138Z,99727.66
2022-10-06T04:09:43.394Z,99724.34
2022-10-06T04:12:29.747Z,99735.16
2022-10-06T04:15:14.680Z,99728.09
2022-10-06T04:17:59.588Z,99726.94
2022-10-06T04:20:44.436Z,99724.78
2022-10-06T04:23:29.310Z,99727.00
2022-10-06T04:26:18.387Z,99725.41
2022-10-06T04:29:07.516Z,99732.28
2022-10-06T04:31:52.820Z,99730.31
2022-10-06T04:34:49.423Z,99729.16
2022-10-06T04:37:35.035Z,99737.09
2022-10-06T04:40:20.422Z,99736.53
2022-10-06T04:43:05.389Z,99737.34
2022-10-06T04:45:58.254Z,99739.78
2022-10-06T04:48:43.511Z,99739.03
2022-10-06T04:51:29.182Z,99746.56
2022-10-06T04:54:16.569Z,99743.28
2022-10-06T04:57:01.905Z,99737.81
2022-10-06T05:00:12.454Z,99745.78
2022-10-06T05:03:00.645Z,99737.97
2022-10-06T05:05:45.696Z,99738.00
2022-10-06T05:08:32.825Z,99740.22
2022-10-06T05:11:20.323Z,99734.53
2022-10-06T05:14:08.849Z,99731.00
2022-10-06T05:16:58.474Z,99736.53
2022-10-06T05:19:43.520Z,99743.63
2022-10-06T05:22:29.784Z,99731.38
2022-10-06T05:25:16.454Z,99744.00
2022-10-06T05:28:01.883Z,99740.41
2022-10-06T05:31:04.110Z,99741.19
2022-10-06T05:33:49.926Z,99746.22
2022-10-06T05:36:57.166Z,99740.28
2022-10-06T05:39:43.430Z,99754.59
2022-10-06T05:42:37.432Z,99750.19
2022-10-06T05:45:22.506Z,99750.28
2022-10-06T05:48:08.495Z,99741.69
2022-10-06T05:51:06.609Z,99759.34
2022-10-06T05:53:54.111Z,99754.66
2022-10-06T05:56:39.123Z,99751.91
2022-10-06T05:59:24.767Z,99751.38
2022-10-06T06:02:14.582Z,99759.34
2022-10-06T06:05:01.705Z,99760.56
2022-10-06T06:07:46.677Z,99767.84
2022-10-06T06:10:32.237Z,99773.19
2022-10-06T06:13:22.004Z,99770.69
2022-10-06T06:16:17.960Z,99771.66
2022-10-06T06:19:07.190Z,99773.28
2022-10-06T06:21:54.029Z,99773.03
2022-10-06T06:24:39.027Z,99773.63
2022-10-06T06:27:27.521Z,99773.84
2022-10-06T06:30:15.578Z,99779.56
2022-10-06T06:33:01.196Z,99780.00
2022-10-06T06:35:46.575Z,99777.16
2022-10-06T06:38:32.160Z,99780.09
2022-10-06T06:41:26.834Z,99789.75
2022-10-06T06:44:19.716Z,99785.69
2022-10-06T06:47:11.162Z,99778.81
2022-10-06T06:49:58.148Z,99784.34
2022-10-06T06:52:44.654Z,99776.09
2022-10-06T06:55:33.077Z,99781.38
2022-10-06T06:58:20.296Z,99779.50
2022-10-06T07:01:13.155Z,99779.84
2022-10-06T07:03:59.406Z,99780.69
2022-10-06T07:06:58.044Z,99779.44
2022-10-06T07:09:47.870Z,99783.50
2022-10-06T07:12:34.738Z,99778.72
2022-10-06T07:15:40.915Z,99777.63
2022-10-06T07:18:52.575Z,99772.13
2022-10-06T07:21:58.476Z,99780.06
2022-10-06T07:25:02.551Z,99782.97
2022-10-06T07:27:50.459Z,99789.03
2022-10-06T07:30:40.905Z,99785.66
2022-10-06T07:33:38.123Z,99785.94
2022-10-06T07:36:24.204Z,99789.75
2022-10-06T07:39:09.841Z,99794.75
2022-10-06T07:41:56.425Z,99789.75
2022-10-06T07:45:06.274Z,99780.50
2022-10-06T07:47:58.393Z,99789.06
2022-10-06T07:50:45.426Z,99785.31
2022-10-06T07:53:30.512Z,99792.03
2022-10-06T07:56:23.306Z,99785.47
2022-10-06T07:59:12.308Z,99778.63
2022-10-06T08:01:57.265Z,99781.94
2022-10-06T08:04:42.092Z,99779.47
2022-10-06T08:07:29.435Z,99788.41
2022-10-06T08:10:14.924Z,99784.88
2022-10-06T08:13:06.139Z,99789.72
2022-10-06T08:15:51.336Z,99792.03
2022-10-06T08:18:46.805Z,99788.88
2022-10-06T08:21:37.040Z,99776.81
2022-10-06T08:24:22.008Z,99782.84
2022-10-06T08:27:09.209Z,99780.50
2022-10-06T08:29:54.587Z,99777.22
2022-10-06T08:37:20.789Z,99784.69
2022-10-06T08:40:07.862Z,99776.63
2022-10-06T08:42:58.538Z,99781.25
2022-10-06T08:45:46.404Z,99783.81
2022-10-06T08:48:40.396Z,99790.03
2022-10-06T08:51:35.806Z,99779.47
2022-10-06T08:54:44.676Z,99782.38
2022-10-06T08:57:42.033Z,99785.81
2022-10-06T09:00:34.364Z,99774.38
2022-10-06T09:03:23.328Z,99785.06
2022-10-06T09:06:51.845Z,99784.53
2022-10-06T09:09:43.507Z,99784.25
2022-10-06T09:12:47.466Z,99778.50
2022-10-06T09:15:46.332Z,99780.84
2022-10-06T09:19:06.884Z,99767.72
2022-10-06T09:21:53.262Z,99792.38
2022-10-06T09:24:47.005Z,99782.94
2022-10-06T09:27:37.147Z,99786.06
2022-10-06T09:30:23.531Z,99769.03
2022-10-06T09:33:43.629Z,99779.44
2022-10-06T09:36:29.497Z,99782.38
2022-10-06T09:39:25.733Z,99786.53
2022-10-06T09:42:29.053Z,99784.41
2022-10-06T09:45:17.184Z,99784.09
2022-10-06T09:48:27.019Z,99773.78
2022-10-06T09:51:18.818Z,99776.06
2022-10-06T09:59:04.239Z,99774.56
2022-10-06T10:02:09.363Z,99773.03
2022-10-06T10:08:50.833Z,99771.63
2022-10-06T10:11:54.966Z,99776.81
2022-10-06T10:14:39.797Z,99776.31
2022-10-06T10:18:00.117Z,99783.44
2022-10-06T10:21:01.178Z,99785.94
2022-10-06T10:23:58.582Z,99787.56
2022-10-06T10:26:59.530Z,99791.75
2022-10-06T10:30:12.243Z,99781.84
2022-10-06T10:33:11.949Z,99781.03
2022-10-06T10:39:10.700Z,99771.38
2022-10-06T10:42:05.750Z,99780.28
2022-10-06T10:45:03.928Z,99783.06
2022-10-06T10:47:48.874Z,99786.19
2022-10-06T10:50:38.825Z,99773.59
2022-10-06T10:53:48.911Z,99785.03
2022-10-06T10:56:34.775Z,99781.00
2022-10-06T10:59:38.742Z,99777.22
2022-10-06T11:02:24.385Z,99777.28
2022-10-06T11:05:16.438Z,99787.28
2022-10-06T11:08:33.260Z,99785.91
2022-10-06T11:11:39.423Z,99784.34
2022-10-06T11:14:46.772Z,99785.38
2022-10-06T11:17:46.533Z,99790.09
2022-10-06T11:20:39.275Z,99776.81
2022-10-06T11:23:40.053Z,99763.34
2022-10-06T11:26:50.203Z,99771.16
2022-10-06T11:30:06.903Z,99775.41
2022-10-06T11:33:14.684Z,99782.94
2022-10-06T11:36:06.064Z,99769.16
2022-10-06T11:39:01.970Z,99768.28
2022-10-06T11:41:59.966Z,99762.09
2022-10-06T11:44:48.720Z,99761.75
2022-10-06T11:47:59.906Z,99769.41
2022-10-06T11:50:48.862Z,99773.00
2022-10-06T11:53:38.168Z,99771.59
2022-10-06T11:56:36.139Z,99774.47
2022-10-06T11:59:26.407Z,99768.91
2022-10-06T12:02:40.492Z,99757.13
2022-10-06T12:08:41.540Z,99761.41
2022-10-06T12:11:43.190Z,99767.50
2022-10-06T12:17:54.701Z,99757.22
2022-10-06T12:21:05.990Z,99761.38
2022-10-06T12:24:22.313Z,99756.16
2022-10-06T12:27:16.186Z,99764.78
2022-10-06T12:30:22.875Z,99766.94
2022-10-06T12:33:18.971Z,99763.63
2022-10-06T12:36:23.477Z,99752.84
2022-10-06T12:39:24.870Z,99757.41
2022-10-06T12:42:24.444Z,99766.69
2022-10-06T12:45:16.826Z,99757.03
2022-10-06T12:48:06.127Z,99760.03
2022-10-06T12:51:00.812Z,99763.06
2022-10-06T12:53:56.017Z,99768.78
2022-10-06T12:56:43.665Z,99761.19
2022-10-06T12:59:34.070Z,99771.03
2022-10-06T13:02:26.527Z,99763.22
2022-10-06T13:05:12.349Z,99768.16
2022-10-06T13:08:03.219Z,99757.41
2022-10-06T13:10:48.430Z,99768.09
2022-10-06T13:13:40.528Z,99763.78
2022-10-06T13:16:35.872Z,99759.53
2022-10-06T13:19:30.621Z,99760.13
2022-10-06T13:22:18.203Z,99753.34
2022-10-06T13:25:03.578Z,99756.81
2022-10-06T13:27:51.207Z,99751.66
2022-10-06T13:30:38.708Z,99753.53
2022-10-06T13:33:27.765Z,99756.41
2022-10-06T13:36:12.962Z,99754.31
2022-10-06T13:39:00.570Z,99762.47
2022-10-06T13:42:00.920Z,99761.50
2022-10-06T13:44:55.933Z,99760.34
2022-10-06T13:47:41.296Z,99767.63
2022-10-06T13:50:29.295Z,99766.22
2022-10-06T13:53:30.505Z,99758.59
2022-10-06T13:56:35.051Z,99767.81
2022-10-06T13:59:31.144Z,99767.03
2022-10-06T14:02:16.087Z,99768.50
2022-10-06T14:05:35.994Z,99773.03
2022-10-06T14:08:24.543Z,99766.69
2022-10-06T14:11:10.342Z,99768.34
2022-10-06T14:14:06.291Z,99778.88
2022-10-06T14:16:54.722Z,99785.63
2022-10-06T14:19:40.627Z,99779.94
2022-10-06T14:22:37.635Z,99794.56
2022-10-06T14:25:22.586Z,99787.41
2022-10-06T14:28:07.500Z,99799.50
2022-10-06T14:30:53.236Z,99798.78
2022-10-06T14:33:38.674Z,99799.63
2022-10-06T14:36:32.893Z,99801.53
2022-10-06T14:39:18.837Z,99805.75
2022-10-06T14:42:03.832Z,99808.44
2022-10-06T14:44:51.634Z,99812.66
2022-10-06T14:47:36.553Z,99812.44
2022-10-06T14:50:21.542Z,99824.28
2022-10-06T14:53:10.526Z,99825.41
2022-10-06T14:56:09.734Z,99825.19
2022-10-06T14:59:03.463Z,99830.13
2022-10-06T15:01:49.160Z,99834.88
2022-10-06T15:04:33.982Z,99833.59
2022-10-06T15:07:37.376Z,99837.22
2022-10-06T15:10:22.416Z,99839.78
2022-10-06T15:13:08.632Z,99846.53
2022-10-06T15:15:57.592Z,99850.09
2022-10-06T15:18:43.085Z,99853.66
2022-10-06T15:21:32.800Z,99848.06
2022-10-06T15:24:18.840Z,99865.38
2022-10-06T15:27:25.061Z,99869.09
2022-10-06T15:30:10.895Z,99879.66
2022-10-06T15:32:59.311Z,99870.63
2022-10-06T15:36:08.486Z,99883.50
2022-10-06T15:38:54.664Z,99890.59
2022-10-06T15:41:42.190Z,99891.47
2022-10-06T15:44:31.178Z,99892.53
2022-10-06T15:47:27.192Z,99902.19
2022-10-06T15:50:16.428Z,99910.03
2022-10-06T15:53:03.885Z,99914.47
2022-10-06T15:55:48.588Z,99911.34
2022-10-06T15:58:33.536Z,99918.31
2022-10-06T16:01:27.584Z,99920.47
2022-10-06T16:04:30.261Z,99918.03
2022-10-06T16:07:21.663Z,99921.94
2022-10-06T16:10:07.264Z,99920.28
2022-10-06T16:12:58.632Z,99929.44
2022-10-06T16:15:43.238Z,99928.03
2022-10-06T16:18:28.592Z,99926.34
2022-10-06T16:21:13.356Z,99938.97
2022-10-06T16:23:58.692Z,99934.81
2022-10-06T16:26:46.303Z,99941.78
2022-10-06T16:29:31.517Z,99944.03
2022-10-06T16:32:16.664Z,99945.28
2022-10-06T16:35:01.412Z,99952.81
2022-10-06T16:37:49.259Z,99948.13
2022-10-06T16:40:34.057Z,99958.16
2022-10-06T16:43:18.956Z,99955.91
2022-10-06T16:46:06.345Z,99963.53
2022-10-06T16:48:55.286Z,99959.13
2022-10-06T16:51:42.795Z,99962.44
2022-10-06T16:54:27.835Z,99965.56
2022-10-06T16:57:13.042Z,99957.50
2022-10-06T16:59:59.718Z,99961.16
2022-10-06T17:02:44.852Z,99959.81
2022-10-06T17:05:29.780Z,99958.09
2022-10-06T17:08:14.707Z,99961.34
2022-10-06T17:11:13.904Z,99965.66
2022-10-06T17:13:58.917Z,99968.59
2022-10-06T17:16:45.758Z,99968.19
2022-10-06T17:19:31.212Z,99967.78
2022-10-06T17:22:16.105Z,99977.00
2022-10-06T17:25:01.040Z,99983.25
2022-10-06T17:27:46.166Z,99984.38
2022-10-06T17:30:31.029Z,99987.78
2022-10-06T17:33:16.612Z,99982.56
2022-10-06T17:36:15.788Z,99988.06
2022-10-06T17:39:01.959Z,99989.91
2022-10-06T17:41:48.308Z,99984.44
2022-10-06T17:44:33.287Z,99989.91
2022-10-06T17:47:17.983Z,99985.72
2022-10-06T17:50:03.407Z,99993.19
2022-10-06T17:52:48.052Z,99996.03
2022-10-06T17:55:35.641Z,100005.00
2022-10-06T17:58:21.505Z,100007.19
2022-10-06T18:01:13.101Z,100012.25
2022-10-06T18:04:03.404Z,100017.56
2022-10-06T18:06:50.929Z,100016.69
2022-10-06T18:09:35.860Z,100019.53
2022-10-06T18:12:20.836Z,100024.19
2022-10-06T18:15:11.702Z,100027.78
2022-10-06T18:17:56.424Z,100025.97
2022-10-06T18:20:41.843Z,100029.13
2022-10-06T18:23:32.124Z,100038.72
2022-10-06T18:26:20.939Z,100029.03
2022-10-06T18:29:06.691Z,100039.09
2022-10-06T18:32:09.369Z,100040.34
2022-10-06T18:36:12.245Z,100040.97
2022-10-06T18:38:05.566Z,100051.94
2022-10-06T18:41:02.179Z,100048.66
2022-10-06T18:43:46.965Z,100054.63
2022-10-06T18:46:50.695Z,100050.25
2022-10-06T18:49:35.813Z,100063.13
2022-10-06T18:52:22.922Z,100063.94
2022-10-06T18:55:08.025Z,100061.25
2022-10-06T18:57:53.623Z,100063.72
2022-10-06T19:00:39.325Z,100059.25
2022-10-06T19:03:26.131Z,100072.66
2022-10-06T19:06:11.249Z,100069.88
2022-10-06T19:09:01.356Z,100087.44
2022-10-06T19:11:51.241Z,100091.03
2022-10-06T19:14:42.147Z,100099.25
2022-10-06T19:17:28.684Z,100105.56
2022-10-06T19:20:13.766Z,100101.31
2022-10-06T19:23:01.684Z,100109.28
2022-10-06T19:25:49.086Z,100113.22
2022-10-06T19:28:37.197Z,100110.63
2022-10-06T19:31:22.105Z,100118.41
2022-10-06T19:34:16.346Z,100113.09
2022-10-06T19:37:00.906Z,100124.69
2022-10-06T19:39:47.428Z,100117.59
2022-10-06T19:42:49.540Z,100122.84
2022-10-06T19:45:34.075Z,100122.16
2022-10-06T19:48:22.128Z,100125.84
2022-10-06T19:51:15.736Z,100135.03
2022-10-06T19:54:04.342Z,100132.31
2022-10-06T19:56:49.540Z,100139.97
2022-10-06T19:59:36.043Z,100136.81
2022-10-06T20:02:20.646Z,100144.34
2022-10-06T20:05:09.395Z,100147.53
2022-10-06T20:07:58.635Z,100155.50
2022-10-06T20:10:43.362Z,100155.28
2022-10-06T20:13:28.324Z,100154.50
2022-10-06T20:16:19.232Z,100150.09
2022-10-06T20:19:15.733Z,100154.84
2022-10-06T20:22:00.459Z,100165.97
2022-10-06T20:24:48.059Z,100169.03
2022-10-06T20:27:32.742Z,100166.88
2022-10-06T20:30:18.313Z,100165.84
2022-10-06T20:33:03.524Z,100167.06
2022-10-06T20:35:48.438Z,100172.03
2022-10-06T20:38:53.343Z,100166.28
2022-10-06T20:41:39.854Z,100183.63
2022-10-06T20:44:37.564Z,100169.66
2022-10-06T20:47:25.116Z,100176.63
2022-10-06T20:50:17.173Z,100179.56
2022-10-06T20:53:04.234Z,100182.59
2022-10-06T20:55:52.934Z,100187.44
2022-10-06T20:58:37.920Z,100181.75
2022-10-06T21:01:23.232Z,100185.00
2022-10-06T21:04:08.946Z,100192.09
2022-10-06T21:06:54.179Z,100199.22
2022-10-06T21:09:39.163Z,100191.88
2022-10-06T21:12:27.857Z,100208.63
2022-10-06T21:15:12.927Z,100212.66
2022-10-06T21:17:57.930Z,100206.25
2022-10-06T21:20:45.235Z,100204.66
2022-10-06T21:23:38.793Z,100207.34
2022-10-06T21:26:29.936Z,100208.78
2022-10-06T21:29:15.024Z,100210.66
2022-10-06T21:32:00.664Z,100212.53
2022-10-06T21:34:50.592Z,100212.44
2022-10-06T21:37:35.386Z,100218.44
2022-10-06T21:40:20.382Z,100212.56
2022-10-06T21:43:05.395Z,100217.59
2022-10-06T21:46:10.945Z,100218.66
2022-10-06T21:49:03.715Z,100227.81
2022-10-06T21:51:51.019Z,100214.72
2022-10-06T21:54:37.485Z,100218.53
2022-10-06T21:57:22.230Z,100223.97
2022-10-06T22:00:10.523Z,100221.59
2022-10-06T22:03:21.890Z,100223.63
2022-10-06T22:06:13.262Z,100218.44
2022-10-06T22:09:03.111Z,100228.97
2022-10-06T22:11:53.869Z,100231.09
2022-10-06T22:14:38.776Z,100237.25
2022-10-06T22:17:23.944Z,100234.91
2022-10-06T22:20:10.428Z,100236.53
2022-10-06T22:22:55.310Z,100241.28
2022-10-06T22:25:40.354Z,100233.69
2022-10-06T22:28:27.217Z,100230.31
2022-10-06T22:31:13.356Z,100240.66
2022-10-06T22:34:01.268Z,100238.06
2022-10-06T22:36:47.171Z,100238.47
2022-10-06T22:39:35.234Z,100245.84
2022-10-06T22:42:20.070Z,100243.88
2022-10-06T22:45:05.533Z,100251.16
2022-10-06T22:47:50.851Z,100253.41
2022-10-06T22:50:35.874Z,100247.81
2022-10-06T22:53:30.649Z,100256.72
2022-10-06T22:56:15.588Z,100263.31
2022-10-06T22:59:03.619Z,100257.56
2022-10-06T23:01:48.592Z,100265.53
2022-10-06T23:04:33.557Z,100271.69
2022-10-06T23:07:21.460Z,100268.38
2022-10-06T23:10:09.289Z,100265.41
2022-10-06T23:12:55.690Z,100269.56
2022-10-06T23:15:40.947Z,100276.97
2022-10-06T23:18:25.763Z,100279.00
2022-10-06T23:21:20.817Z,100283.16
2022-10-06T23:24:06.493Z,100285.38
2022-10-06T23:26:57.374Z,100277.22
2022-10-06T23:29:42.572Z,100287.38
2022-10-06T23:32:27.957Z,100278.81
2022-10-06T23:35:13.001Z,100288.00
2022-10-06T23:37:58.933Z,100288.56
2022-10-06T23:40:46.978Z,100304.88
2022-10-06T23:43:32.223Z,100307.28
2022-10-06T23:46:16.960Z,100295.41
2022-10-06T23:49:07.830Z,100305.19
2022-10-06T23:51:55.226Z,100307.19
2022-10-06T23:54:40.164Z,100302.63
2022-10-06T23:57:24.690Z,100303.03
